Weather

DAILY 7 DAY TOTAL
onrain

Note: Some stations are located near irrigated fields and may also report irrigation

Alliston Mount Forest Blyth Guelph Grand Bend Strathroy Woodstock Belmont Simcoe Leamington Chatham West Lorne






Belmont - Historical Weather Data
Date Max Temp (°C) Min Temp (°C) Avg Temp (°C) Rain (mm) 7Day Rain(mm) Total Rain(mm) Avg RH (%)
6/16/2018 28.0 13.3 20.4 0.2 7.8 47.6 87.9
6/15/2018 26.6 7.0 17.5 0.0 8.0 47.4 76.4
6/14/2018 24.8 11.3 18.9 0.0 8.0 47.4 73.5
6/13/2018 29.8 14.4 21.9 7.6 8.0 47.4 88.4
6/12/2018 26.4 7.8 19.1 0.0 0.4 39.8 89.1
6/11/2018 26.8 12.9 19.3 0.0 0.4 39.8 57.1
6/10/2018 22.1 15.9 18.5 0.0 2.2 39.8 87.0
6/9/2018 21.4 11.3 16.7 0.4 9.6 39.8 94.1
6/8/2018 28.0 10.8 19.1 0.0 9.2 39.4 84.6
6/7/2018 23.7 8.3 16.6 0.0 9.2 39.4 90.8
6/6/2018 19.4 7.7 12.9 0.0 9.2 39.4 91.5
6/5/2018 15.2 8.6 12.4 0.0 9.2 39.4 94.4
6/4/2018 20.5 13.4 16.2 1.8 9.2 39.4 90.8
6/3/2018 24.8 13.5 18.3 7.4 7.4 37.6 97.9
6/2/2018 21.9 13.0 17.0 0.0 0.0 30.2 97.1
6/1/2018 29.3 16.6 23.1 0.0 0.4 30.2 89.5
5/31/2018 30.1 20.3 24.4 0.0 0.4 30.2 92.9
5/30/2018 29.8 17.7 24.5 0.0 0.4 30.2 82.3
5/29/2018 32.3 16.8 24.6 0.0 0.4 30.2 78.7
5/28/2018 32.7 14.7 24.5 0.0 2.6 30.2 81.2
5/27/2018 28.1 14.3 21.2 0.0 4.0 30.2 95.6
5/26/2018 26.2 11.7 19.3 0.4 4.0 30.2 93.6
5/25/2018 28.8 8.6 20.0 0.0 5.2 29.8 73.5
5/24/2018 28.3 7.1 18.0 0.0 5.2 29.8 78.5
5/23/2018 25.3 9.5 17.2 0.0 5.2 29.8 79.4
5/22/2018 20.1 11.6 15.4 2.2 5.2 29.8 99.9
5/21/2018 22.7 3.8 14.1 1.4 18.0 27.6 76.9
5/20/2018 18.6 7.4 14.1 0.0 16.6 26.2 96.9
5/19/2018 22.1 10.5 16.2 1.6 16.6 26.2 94.6
5/18/2018 19.0 10.0 14.7 0.0 24.6 24.6 62.1
5/17/2018 27.7 8.2 19.0 0.0 24.6 24.6 79.3
5/16/2018 24.7 7.4 16.3 0.0 24.6 24.6 88.2
5/15/2018 22.4 11.8 16.5 15.0 24.6 24.6 97.3
5/14/2018 19.8 5.6 12.9 0.0 9.6 9.6 99.6
5/13/2018 20.8 6.0 13.0 0.0 9.6 9.6 87.3
5/12/2018 15.5 5.0 9.0 9.6 9.6 9.6 94.6
5/11/2018 10.7 1.5 6.3 0.0 0.0 0.0 91.4
5/10/2018 19.5 6.7 16.1 0.0 0.0 0.0 94.3
5/9/2018 26.7 3.3 16.4 0.0 0.0 0.0 79.5
5/8/2018 22.3 1.9 13.3 0.0 0.0 0.0 72.7
5/7/2018 18.6 5.8 12.8 0.0 0.0 0.0 81.8
5/6/2018 22.3 9.7 14.1 0.0 0.0 0.0 94.0
5/5/2018 24.3 5.9 15.0 0.0 0.0 0.0 81.1
5/4/2018 24.1 6.5 15.7 0.0 0.0 0.0 94.6
5/3/2018 19.7 13.7 16.7 0.0 0.0 0.0 99.9
5/2/2018 26.4 9.1 20.0 0.0 0.0 0.0 69.5
5/1/2018 25.0 0.8 14.6 0.0 0.0 0.0 66.1